Time;durP1;ratioP1;P1;durP2;ratioP2;P2;SDS_P1;SDS_P2;PMS_P1;PMS_P2;Temp;Humidity;BMP_temperature;BMP_pressure;BME280_temperature;BME280_humidity;BME280_pressure;Samples;Min_cycle;Max_cycle;Signal;HPM_P1;HPM_P2
2021/10/22 08:48:24;;;;;;;3.17;1.40;;;12.50;99.90;;;;;;4953019;29;20327;-73
2021/10/22 08:50:51;;;;;;;2.97;0.77;;;12.60;99.90;;;;;;4955002;29;20215;-73
2021/10/22 08:53:18;;;;;;;1.73;0.70;;;12.50;99.90;;;;;;4955132;29;20618;-73
2021/10/22 08:55:45;;;;;;;3.90;0.80;;;12.60;99.90;;;;;;4955067;29;20218;-72
2021/10/22 08:58:15;;;;;;;1.90;0.60;;;12.60;99.90;;;;;;4955216;29;20218;-73
2021/10/22 09:00:42;;;;;;;3.33;0.60;;;12.60;99.90;;;;;;4954968;29;20364;-73
2021/10/22 09:03:11;;;;;;;3.97;0.77;;;12.30;99.90;;;;;;4954872;29;20239;-73
2021/10/22 09:05:39;;;;;;;2.77;0.70;;;12.00;99.90;;;;;;4955050;28;20212;-73
2021/10/22 09:08:06;;;;;;;2.83;0.70;;;11.90;99.90;;;;;;4954895;29;20232;-73
2021/10/22 09:10:36;;;;;;;3.80;0.70;;;11.80;99.90;;;;;;4954823;29;20212;-73
2021/10/22 09:13:05;;;;;;;2.27;0.90;;;11.90;99.90;;;;;;4955224;28;20742;-74
2021/10/22 09:15:34;;;;;;;2.37;0.97;;;11.80;99.90;;;;;;4955350;29;20635;-73
2021/10/22 09:18:07;;;;;;;2.30;0.60;;;11.80;99.90;;;;;;4955032;28;20295;-74
2021/10/22 09:20:50;;;;;;;0.77;0.43;;;11.80;99.90;;;;;;4958833;29;20783;-74
2021/10/22 09:23:25;;;;;;;2.20;0.70;;;11.70;99.90;;;;;;4958811;28;20234;-74
2021/10/22 09:25:53;;;;;;;2.37;0.83;;;11.80;99.90;;;;;;4958745;29;20211;-75
2021/10/22 09:28:27;;;;;;;3.80;0.80;;;11.70;99.90;;;;;;4958406;29;20702;-73
2021/10/22 09:30:54;;;;;;;7.00;0.80;;;11.70;99.90;;;;;;4958439;29;20670;-74
2021/10/22 09:33:23;;;;;;;5.80;0.50;;;11.60;99.90;;;;;;4958266;28;20236;-74
2021/10/22 09:35:54;;;;;;;2.60;0.70;;;11.60;99.90;;;;;;4958524;29;20291;-74
2021/10/22 09:38:23;;;;;;;3.70;0.60;;;11.60;99.90;;;;;;4958260;29;20275;-73
2021/10/22 09:40:54;;;;;;;3.23;1.00;;;11.50;99.90;;;;;;4958421;29;20211;-73
2021/10/22 09:43:29;;;;;;;3.27;0.90;;;11.40;99.90;;;;;;4958083;29;20710;-72
2021/10/22 09:46:09;;;;;;;3.63;0.80;;;11.50;99.90;;;;;;4958511;29;20212;-73
2021/10/22 09:48:36;;;;;;;2.47;0.50;;;11.40;99.90;;;;;;4958187;29;20212;-74
2021/10/22 09:51:27;;;;;;;2.27;0.70;;;11.50;99.90;;;;;;4958349;29;20214;-73
2021/10/22 09:53:55;;;;;;;3.27;0.80;;;11.40;99.90;;;;;;4957999;28;20653;-73
2021/10/22 09:56:24;;;;;;;2.20;0.70;;;11.50;99.90;;;;;;4958054;29;20212;-75
2021/10/22 09:58:55;;;;;;;1.97;0.70;;;11.50;99.90;;;;;;4958061;29;20220;-73
2021/10/22 10:01:29;;;;;;;2.00;0.60;;;11.50;99.90;;;;;;4958022;29;20204;-72
2021/10/22 10:03:58;;;;;;;2.33;0.70;;;11.50;99.90;;;;;;4957786;29;20224;-73
2021/10/22 10:06:27;;;;;;;2.20;0.50;;;11.60;99.90;;;;;;4957784;28;20235;-73
2021/10/22 10:08:54;;;;;;;1.60;0.50;;;11.70;99.90;;;;;;4958026;29;20208;-73
2021/10/22 10:11:22;;;;;;;2.57;0.80;;;11.70;99.90;;;;;;4958100;29;20230;-73
2021/10/22 10:13:49;;;;;;;1.87;0.50;;;11.70;99.90;;;;;;4957472;29;20719;-74
2021/10/22 10:16:18;;;;;;;4.63;0.90;;;11.80;99.90;;;;;;4957763;28;20291;-73
2021/10/22 10:18:47;;;;;;;5.10;0.67;;;11.90;99.90;;;;;;4957617;29;20552;-73
2021/10/22 10:21:18;;;;;;;3.27;1.10;;;12.00;99.90;;;;;;4957340;29;20230;-73
2021/10/22 10:23:47;;;;;;;1.03;0.53;;;12.00;99.90;;;;;;4957762;29;20253;-73
2021/10/22 10:26:25;;;;;;;6.00;0.87;;;12.10;99.90;;;;;;4957538;29;20566;-73
2021/10/22 10:28:53;;;;;;;3.63;0.80;;;12.10;99.90;;;;;;4957794;29;20298;-73
2021/10/22 10:31:28;;;;;;;4.03;0.80;;;12.10;99.90;;;;;;4956096;28;20303;-73
2021/10/22 10:33:55;;;;;;;3.03;0.93;;;12.10;99.90;;;;;;4957163;29;20706;-73
2021/10/22 10:36:44;;;;;;;3.30;0.67;;;12.10;99.90;;;;;;4957692;28;20211;-73
2021/10/22 10:39:13;;;;;;;4.27;0.67;;;12.00;99.90;;;;;;4957291;29;20659;-74
2021/10/22 10:41:39;;;;;;;3.80;0.73;;;12.10;99.90;;;;;;4956979;29;20220;-73
2021/10/22 10:44:31;;;;;;;6.43;0.70;;;12.20;99.90;;;;;;4956949;29;20235;-72
2021/10/22 10:46:58;;;;;;;2.40;0.53;;;12.20;99.90;;;;;;4956783;29;20365;-74
2021/10/22 10:49:59;;;;;;;1.00;0.33;;;12.30;99.90;;;;;;4957204;29;20303;-74
2021/10/22 10:53:00;;;;;;;2.77;0.60;;;12.40;99.90;;;;;;4956815;29;20227;-73
2021/10/22 10:55:31;;;;;;;1.57;0.50;;;12.40;99.90;;;;;;4957000;29;20306;-73
2021/10/22 10:58:15;;;;;;;1.53;0.37;;;12.50;99.90;;;;;;4956970;29;20212;-73
2021/10/22 11:00:45;;;;;;;2.37;0.60;;;12.70;99.90;;;;;;4956941;29;20211;-74
2021/10/22 11:03:20;;;;;;;2.57;0.83;;;12.80;99.90;;;;;;4957013;29;20228;-73
2021/10/22 11:06:16;;;;;;;0.97;0.60;;;13.00;99.90;;;;;;4957106;28;20211;-74
2021/10/22 11:08:47;;;;;;;4.67;0.70;;;13.10;99.90;;;;;;4946991;29;20232;-71
2021/10/22 11:11:40;;;;;;;3.40;0.67;;;13.10;99.90;;;;;;4944199;29;20559;-71
2021/10/22 11:14:23;;;;;;;2.73;0.60;;;13.00;99.90;;;;;;4935892;28;20235;-72
2021/10/22 11:16:58;;;;;;;1.37;0.40;;;13.10;99.90;;;;;;4936167;29;20205;-70
2021/10/22 11:19:36;;;;;;;3.47;0.63;;;13.00;99.90;;;;;;4937389;29;20238;-70
2021/10/22 11:22:08;;;;;;;5.03;0.80;;;12.90;99.90;;;;;;4937264;29;20272;-70
2021/10/22 11:24:37;;;;;;;2.93;0.60;;;13.00;99.90;;;;;;4937362;29;20213;-70
2021/10/22 11:27:07;;;;;;;1.70;0.53;;;13.10;99.90;;;;;;4937166;29;20233;-70
2021/10/22 11:29:36;;;;;;;2.00;0.47;;;13.10;99.90;;;;;;4936930;29;20660;-70
2021/10/22 11:32:09;;;;;;;2.83;0.77;;;13.20;99.90;;;;;;4953065;29;20662;-71
2021/10/22 11:34:37;;;;;;;1.47;0.50;;;13.20;99.90;;;;;;4956317;29;20208;-74
2021/10/22 11:37:08;;;;;;;2.97;0.50;;;13.00;99.90;;;;;;4956289;29;20204;-77
2021/10/22 11:39:37;;;;;;;3.73;0.53;;;12.90;99.90;;;;;;4955799;29;20615;-69
2021/10/22 11:42:15;;;;;;;2.80;0.63;;;12.90;99.90;;;;;;4955905;28;20230;-69
2021/10/22 11:44:47;;;;;;;1.07;0.43;;;13.10;99.90;;;;;;4956179;28;20216;-70
2021/10/22 11:47:14;;;;;;;1.40;0.50;;;13.10;99.90;;;;;;4955539;29;20235;-69
2021/10/22 11:49:42;;;;;;;2.80;0.50;;;13.10;99.90;;;;;;4955564;29;20204;-73
2021/10/22 11:52:12;;;;;;;2.33;0.73;;;12.90;99.90;;;;;;4956000;28;20207;-75
2021/10/22 11:54:42;;;;;;;1.50;0.40;;;12.90;99.90;;;;;;4955746;29;20210;-72
2021/10/22 11:57:12;;;;;;;1.63;0.70;;;13.10;99.90;;;;;;4955758;28;20216;-75
2021/10/22 11:59:54;;;;;;;2.57;0.50;;;13.20;99.90;;;;;;4949390;28;20233;-73
2021/10/22 12:02:23;;;;;;;1.73;0.40;;;13.40;99.90;;;;;;4936149;29;20738;-73
2021/10/22 12:04:57;;;;;;;2.17;0.67;;;13.70;99.90;;;;;;4936756;29;20212;-76
2021/10/22 12:07:27;;;;;;;1.60;0.53;;;13.80;99.90;;;;;;4936229;29;20232;-75
2021/10/22 12:09:55;;;;;;;1.77;0.40;;;13.80;99.90;;;;;;4936315;29;20209;-76
2021/10/22 12:12:25;;;;;;;2.30;0.47;;;13.80;99.90;;;;;;4936444;29;20260;-74
2021/10/22 12:14:53;;;;;;;2.80;0.53;;;13.70;99.90;;;;;;4936630;29;20209;-74
2021/10/22 12:17:22;;;;;;;2.20;0.57;;;13.70;99.90;;;;;;4940751;29;20216;-76
2021/10/22 12:19:53;;;;;;;1.30;0.30;;;13.70;99.90;;;;;;4955288;29;20298;-76
2021/10/22 12:22:25;;;;;;;2.20;0.60;;;13.70;99.90;;;;;;4955218;29;20766;-77
2021/10/22 12:24:55;;;;;;;0.97;0.40;;;13.50;99.90;;;;;;4944382;29;20564;-76
2021/10/22 12:27:27;;;;;;;3.23;0.47;;;13.50;99.90;;;;;;4951813;29;20232;-73
2021/10/22 12:30:00;;;;;;;2.23;0.40;;;13.40;99.90;;;;;;4947611;29;20353;-74
2021/10/22 12:32:31;;;;;;;3.37;0.70;;;13.50;99.90;;;;;;4935986;29;20599;-76
2021/10/22 12:34:58;;;;;;;1.93;0.30;;;13.40;99.90;;;;;;4936257;29;20209;-73
2021/10/22 12:37:37;;;;;;;2.13;0.40;;;13.30;99.90;;;;;;4936129;29;20221;-73
2021/10/22 12:40:19;;;;;;;0.97;0.30;;;13.30;99.90;;;;;;4933001;29;20208;-73
2021/10/22 12:43:02;;;;;;;2.80;0.40;;;13.50;99.90;;;;;;4934413;29;20233;-73
2021/10/22 12:45:29;;;;;;;1.97;0.30;;;13.50;99.90;;;;;;4934624;29;20549;-71
2021/10/22 12:47:57;;;;;;;4.53;0.50;;;13.30;99.90;;;;;;4934899;29;20703;-75
2021/10/22 12:50:26;;;;;;;4.13;0.40;;;13.20;99.90;;;;;;4934156;29;20209;-72
2021/10/22 12:52:57;;;;;;;1.00;0.30;;;13.20;99.90;;;;;;4934089;29;20802;-74
2021/10/22 12:55:25;;;;;;;2.70;0.40;;;13.20;99.90;;;;;;4934261;29;20213;-75
2021/10/22 12:58:11;;;;;;;3.50;0.47;;;13.20;99.90;;;;;;4934618;29;20690;-72
2021/10/22 13:00:39;;;;;;;1.10;0.40;;;13.20;99.90;;;;;;4933986;29;20208;-76
2021/10/22 13:03:06;;;;;;;1.03;0.37;;;13.10;99.90;;;;;;4934467;29;20229;-74
2021/10/22 13:05:35;;;;;;;0.53;0.40;;;13.20;99.90;;;;;;4934751;29;20208;-76
2021/10/22 13:10:59;;;;;;;2.10;0.30;;;13.20;99.90;;;;;;4948872;28;20212;-76
2021/10/22 13:13:54;;;;;;;0.63;0.40;;;13.30;99.90;;;;;;4953578;29;20286;-74
2021/10/22 13:22:04;;;;;;;2.23;0.70;;;13.40;99.90;;;;;;4856823;29;20199;-72
2021/10/22 13:24:31;;;;;;;3.13;0.60;;;13.50;99.90;;;;;;4915534;29;20219;-70
2021/10/22 13:26:59;;;;;;;1.10;0.40;;;13.60;99.90;;;;;;4934458;29;20209;-70
2021/10/22 13:29:27;;;;;;;3.10;0.57;;;13.70;99.90;;;;;;4934497;29;20244;-71
2021/10/22 13:31:54;;;;;;;1.57;0.50;;;13.90;99.90;;;;;;4935164;29;20205;-71
2021/10/22 13:34:21;;;;;;;0.63;0.40;;;13.80;99.90;;;;;;4935450;29;20244;-72
2021/10/22 13:36:47;;;;;;;1.30;0.40;;;13.80;99.90;;;;;;4935389;29;20213;-72
2021/10/22 13:39:15;;;;;;;1.50;0.60;;;13.80;99.90;;;;;;4935654;29;20219;-72
2021/10/22 13:41:42;;;;;;;1.83;1.43;;;13.90;99.90;;;;;;4935631;29;20209;-73
2021/10/22 13:44:09;;;;;;;1.37;0.50;;;13.80;99.90;;;;;;4935470;29;20726;-72
2021/10/22 13:46:39;;;;;;;2.70;0.50;;;13.70;99.90;;;;;;4935187;29;20268;-72
2021/10/22 13:49:06;;;;;;;3.13;0.70;;;13.50;99.90;;;;;;4935569;29;20695;-72
2021/10/22 13:51:34;;;;;;;1.33;0.43;;;13.50;99.90;;;;;;4935180;29;20592;-72
2021/10/22 13:54:01;;;;;;;1.43;0.70;;;13.40;99.90;;;;;;4935462;29;20233;-72
2021/10/22 13:56:28;;;;;;;1.63;0.90;;;13.40;99.90;;;;;;4935558;29;20216;-73
2021/10/22 13:58:54;;;;;;;4.53;0.60;;;13.40;99.90;;;;;;4935049;29;20569;-73
2021/10/22 14:01:21;;;;;;;4.30;0.87;;;13.50;99.90;;;;;;4935053;29;20572;-75
2021/10/22 14:03:49;;;;;;;3.90;0.70;;;13.50;99.90;;;;;;4934930;29;20759;-72
2021/10/22 14:06:16;;;;;;;3.50;0.50;;;13.50;99.90;;;;;;4938571;29;20209;-73
2021/10/22 14:08:43;;;;;;;2.53;0.50;;;13.40;99.90;;;;;;4938864;29;20252;-73
2021/10/22 14:11:11;;;;;;;1.10;0.73;;;13.20;99.90;;;;;;4938876;29;20209;-72
2021/10/22 14:13:42;;;;;;;3.47;0.40;;;13.10;99.90;;;;;;4938634;29;20620;-73
2021/10/22 14:16:27;;;;;;;0.80;0.40;;;13.00;99.90;;;;;;4938737;29;20236;-72
2021/10/22 14:29:56;;;;;;;0.83;0.40;;;13.30;99.90;;;;;;4938597;29;20239;-72
2021/10/22 14:32:23;;;;;;;5.70;0.50;;;13.30;99.90;;;;;;4938160;29;20233;-73
2021/10/22 14:34:52;;;;;;;3.60;0.63;;;13.40;99.90;;;;;;4938475;29;20213;-72
2021/10/22 14:37:19;;;;;;;1.50;0.50;;;13.40;99.90;;;;;;4938098;29;20231;-74
2021/10/22 14:39:46;;;;;;;3.47;0.53;;;13.40;99.90;;;;;;4938157;29;20677;-72
2021/10/22 14:42:13;;;;;;;1.47;0.60;;;13.50;99.90;;;;;;4938543;29;20239;-72
2021/10/22 14:44:42;;;;;;;1.70;0.63;;;13.50;99.90;;;;;;4938240;29;20573;-72
2021/10/22 14:47:16;;;;;;;2.87;0.37;;;13.30;99.90;;;;;;4937897;29;20220;-75
2021/10/22 14:49:45;;;;;;;1.83;0.40;;;13.40;99.90;;;;;;4937695;29;20263;-73
2021/10/22 14:52:25;;;;;;;2.10;0.50;;;13.50;99.90;;;;;;4938270;29;20241;-74
2021/10/22 14:54:54;;;;;;;4.23;0.67;;;13.70;99.90;;;;;;4938041;29;20257;-73
2021/10/22 14:57:21;;;;;;;3.70;0.70;;;13.70;99.90;;;;;;4938080;29;20212;-74
2021/10/22 14:59:48;;;;;;;2.20;0.60;;;13.40;99.90;;;;;;4937774;29;20217;-73
2021/10/22 15:02:15;;;;;;;3.20;0.50;;;13.30;99.90;;;;;;4937625;29;20224;-72
2021/10/22 15:04:44;;;;;;;1.07;0.43;;;13.20;99.90;;;;;;4937994;29;20221;-73
2021/10/22 15:07:11;;;;;;;3.20;0.50;;;13.20;99.90;;;;;;4937870;29;20295;-72
2021/10/22 15:09:39;;;;;;;0.80;0.40;;;13.10;99.90;;;;;;4937751;29;20247;-73
2021/10/22 15:12:07;;;;;;;4.33;0.70;;;13.10;99.90;;;;;;4937543;29;20209;-72
2021/10/22 15:14:37;;;;;;;3.70;0.60;;;13.10;99.90;;;;;;4937540;29;20205;-73
2021/10/22 15:17:04;;;;;;;1.83;0.33;;;13.20;99.90;;;;;;4936278;29;20212;-73
2021/10/22 15:19:31;;;;;;;2.70;1.10;;;13.10;99.90;;;;;;4939780;29;20287;-72
2021/10/22 15:21:58;;;;;;;2.10;0.47;;;13.10;99.90;;;;;;4946673;29;20208;-73
2021/10/22 15:24:24;;;;;;;1.33;0.40;;;13.10;99.90;;;;;;4942365;29;20652;-73
2021/10/22 15:26:52;;;;;;;3.90;0.67;;;13.20;99.90;;;;;;4937143;29;20209;-71
2021/10/22 15:29:20;;;;;;;2.77;0.80;;;13.30;99.90;;;;;;4948510;29;20232;-72
2021/10/22 15:31:47;;;;;;;2.90;1.07;;;13.40;99.90;;;;;;4936651;29;20197;-71
2021/10/22 15:34:14;;;;;;;4.83;2.00;;;13.30;99.90;;;;;;4944321;29;20231;-72
2021/10/22 15:36:40;;;;;;;8.83;4.13;;;13.30;99.90;;;;;;4955776;29;20659;-72
2021/10/22 15:39:07;;;;;;;2.00;0.90;;;13.20;99.90;;;;;;4955431;29;20214;-72
2021/10/22 15:41:36;;;;;;;4.87;1.07;;;13.10;99.90;;;;;;4956039;29;20219;-73
2021/10/22 15:44:05;;;;;;;1.87;0.90;;;12.80;99.90;;;;;;4955367;29;20702;-72
2021/10/22 15:46:35;;;;;;;1.10;0.80;;;12.80;99.90;;;;;;4955643;29;20216;-72
2021/10/22 15:49:02;;;;;;;4.27;2.20;;;12.70;99.90;;;;;;4955186;29;20246;-74
2021/10/22 15:51:29;;;;;;;1.13;0.70;;;12.50;99.90;;;;;;4938020;29;20213;-75
2021/10/22 15:53:56;;;;;;;3.30;1.17;;;12.40;99.90;;;;;;4934703;29;20239;-78
2021/10/22 15:56:22;;;;;;;4.83;1.13;;;12.30;99.90;;;;;;4935198;29;20216;-69
2021/10/22 15:58:50;;;;;;;1.83;0.97;;;12.30;99.90;;;;;;4933853;29;20236;-68
2021/10/22 16:01:18;;;;;;;4.27;1.80;;;12.10;99.90;;;;;;4934124;29;20639;-71
2021/10/22 16:03:46;;;;;;;4.23;2.03;;;12.10;99.90;;;;;;4933397;29;20224;-71
2021/10/22 16:06:15;;;;;;;2.97;1.50;;;12.10;99.90;;;;;;4934228;29;20289;-70
2021/10/22 16:08:47;;;;;;;9.83;3.77;;;12.20;99.90;;;;;;4934398;29;20236;-72
2021/10/22 16:14:04;;;;;;;27.13;6.17;;;12.30;99.90;;;;;;4930587;29;20224;-76
2021/10/22 16:16:53;;;;;;;3.67;1.97;;;12.30;99.90;;;;;;4934610;29;20216;-76
2021/10/22 16:19:21;;;;;;;1.20;0.70;;;12.40;99.90;;;;;;4933840;29;20223;-68
2021/10/22 16:21:49;;;;;;;2.77;1.20;;;12.30;99.90;;;;;;4933907;29;20211;-71
2021/10/22 16:24:15;;;;;;;3.07;0.90;;;12.30;99.90;;;;;;4952378;29;20230;-73
2021/10/22 16:26:43;;;;;;;4.30;1.07;;;12.40;99.90;;;;;;4953669;29;20361;-72
2021/10/22 16:29:10;;;;;;;3.53;0.97;;;12.50;99.90;;;;;;4936366;29;20275;-70
2021/10/22 16:31:38;;;;;;;2.47;1.60;;;12.60;99.90;;;;;;4934214;29;20209;-75
2021/10/22 16:36:50;;;;;;;3.07;1.43;;;12.30;99.90;;;;;;4934296;29;20207;-68
2021/10/22 16:39:17;;;;;;;2.40;0.83;;;12.30;99.90;;;;;;4934091;29;20628;-70
2021/10/22 16:41:44;;;;;;;6.77;1.07;;;12.20;99.90;;;;;;4934405;29;20208;-72
2021/10/22 16:44:11;;;;;;;3.47;1.17;;;12.10;99.90;;;;;;4934063;29;20255;-71
2021/10/22 16:46:39;;;;;;;4.60;1.40;;;12.10;99.90;;;;;;4933715;29;20224;-70
2021/10/22 16:49:06;;;;;;;5.60;0.87;;;12.10;99.90;;;;;;4935164;29;20668;-68
2021/10/22 16:51:33;;;;;;;3.70;1.07;;;12.00;99.90;;;;;;4934605;29;20208;-68
2021/10/22 16:54:00;;;;;;;2.23;0.73;;;12.00;99.90;;;;;;4934915;29;20235;-68
2021/10/22 16:56:27;;;;;;;1.03;0.77;;;12.00;99.90;;;;;;4935087;29;20205;-68
2021/10/22 16:58:54;;;;;;;3.97;1.20;;;11.90;99.90;;;;;;4935165;29;20303;-68
2021/10/22 17:01:21;;;;;;;3.80;1.00;;;11.90;99.90;;;;;;4935345;29;20216;-68
2021/10/22 17:03:49;;;;;;;2.77;1.20;;;11.80;99.90;;;;;;4934861;29;20319;-67
2021/10/22 17:06:16;;;;;;;3.03;0.80;;;11.90;99.90;;;;;;4934945;29;20664;-68
2021/10/22 17:08:43;;;;;;;4.20;1.10;;;11.90;99.90;;;;;;4934582;29;20228;-68
2021/10/22 17:11:10;;;;;;;5.47;0.97;;;11.70;99.90;;;;;;4935449;29;20208;-68
2021/10/22 17:13:37;;;;;;;5.13;0.80;;;11.70;99.90;;;;;;4934849;29;20232;-68
2021/10/22 17:16:05;;;;;;;4.37;0.90;;;11.70;99.90;;;;;;4935251;29;20219;-68
2021/10/22 17:18:34;;;;;;;2.47;0.90;;;11.60;99.90;;;;;;4934972;29;20299;-68
2021/10/22 17:21:02;;;;;;;4.60;1.63;;;11.60;99.90;;;;;;4934778;29;20604;-68
